Time;durP1;ratioP1;P1;durP2;ratioP2;P2;SDS_P1;SDS_P2;PMS_P1;PMS_P2;Temp;Humidity;BMP_temperature;BMP_pressure;BME280_temperature;BME280_humidity;BME280_pressure;Samples;Min_cycle;Max_cycle;Signal;HPM_P1;HPM_P2
2023/03/04 00:01:09;;;;;;;2.28;2.08;;;;;;;3.95;70.36;101993.09;5142515;28;20065;-80
2023/03/04 00:03:39;;;;;;;1.30;1.30;;;;;;;3.96;69.81;101991.38;5137997;28;20058;-80
2023/03/04 00:06:09;;;;;;;1.20;1.08;;;;;;;3.97;70.09;101995.72;5139305;28;20042;-80
2023/03/04 00:08:40;;;;;;;2.10;1.80;;;;;;;4.00;69.42;102000.97;5142371;28;20073;-79
2023/03/04 00:11:10;;;;;;;1.30;1.30;;;;;;;3.99;69.84;101997.50;5147984;28;21104;-80
2023/03/04 00:13:41;;;;;;;0.82;0.82;;;;;;;3.96;69.85;102005.22;5129124;28;20027;-79
2023/03/04 00:16:11;;;;;;;0.50;0.50;;;;;;;3.92;70.27;101998.22;5125515;28;20082;-79
2023/03/04 00:18:41;;;;;;;0.88;0.88;;;;;;;3.94;69.79;101993.91;5138709;28;20027;-79
2023/03/04 00:21:12;;;;;;;1.38;1.38;;;;;;;4.02;69.21;101989.75;5150319;28;20050;-79
2023/03/04 00:23:42;;;;;;;0.40;0.40;;;;;;;4.03;69.26;101999.31;5144579;28;20451;-79
2023/03/04 00:26:14;;;;;;;0.57;0.57;;;;;;;4.08;69.55;101986.41;5124539;28;20490;-82
2023/03/04 00:28:44;;;;;;;0.90;0.90;;;;;;;4.14;69.40;101986.53;5139069;28;20097;-79
2023/03/04 00:31:15;;;;;;;0.77;0.77;;;;;;;4.16;68.67;101991.78;5124464;28;20045;-82
2023/03/04 00:33:45;;;;;;;2.05;1.92;;;;;;;4.19;68.62;101982.31;5130852;28;20118;-80
2023/03/04 00:36:16;;;;;;;2.15;1.45;;;;;;;4.15;68.79;101980.50;5139654;28;21167;-80
2023/03/04 00:38:46;;;;;;;0.47;0.47;;;;;;;4.21;68.56;101977.16;5127604;28;20555;-80
2023/03/04 00:41:17;;;;;;;1.40;1.30;;;;;;;4.19;68.23;101973.63;5121332;28;20043;-80
2023/03/04 00:43:47;;;;;;;2.92;1.15;;;;;;;4.07;69.31;101976.88;5132198;28;20049;-80
2023/03/04 00:46:17;;;;;;;0.43;0.43;;;;;;;4.14;69.17;101970.94;5126469;28;20550;-83
2023/03/04 00:48:48;;;;;;;0.50;0.50;;;;;;;4.25;68.15;101973.78;5145656;28;20113;-79
2023/03/04 00:51:18;;;;;;;0.73;0.68;;;;;;;4.34;67.70;101962.66;5145688;28;20119;-81
2023/03/04 00:53:51;;;;;;;0.68;0.68;;;;;;;4.31;68.66;101973.88;5147954;28;20490;-79
2023/03/04 00:56:21;;;;;;;2.20;2.03;;;;;;;4.30;68.40;101966.94;5154446;28;20059;-81
2023/03/04 00:58:51;;;;;;;7.13;2.10;;;;;;;4.34;67.59;101960.94;5148508;28;20101;-79
2023/03/04 01:01:22;;;;;;;2.70;1.65;;;;;;;4.26;68.51;101959.91;5144903;28;20570;-82
2023/03/04 01:03:52;;;;;;;1.02;1.02;;;;;;;4.28;68.24;101955.63;5139606;28;20027;-80
2023/03/04 01:06:23;;;;;;;0.70;0.70;;;;;;;4.28;68.59;101963.44;5127393;28;20046;-80
2023/03/04 01:08:53;;;;;;;2.72;2.15;;;;;;;4.33;67.46;101958.31;5147537;28;20524;-78
2023/03/04 01:11:24;;;;;;;0.30;0.30;;;;;;;4.37;67.93;101962.75;5147764;28;20034;-79
2023/03/04 01:13:54;;;;;;;0.80;0.80;;;;;;;4.30;68.23;101960.88;5153585;28;20223;-80
2023/03/04 01:16:25;;;;;;;1.85;1.63;;;;;;;4.32;68.41;101965.25;5143378;28;20097;-79
2023/03/04 01:18:55;;;;;;;0.45;0.45;;;;;;;4.30;68.37;101961.75;5147223;28;20470;-80
2023/03/04 01:21:26;;;;;;;1.17;1.15;;;;;;;4.32;68.12;101960.06;5142687;28;20061;-79
2023/03/04 01:23:56;;;;;;;1.75;1.05;;;;;;;4.24;68.76;101953.84;5131921;28;20259;-82
2023/03/04 01:26:26;;;;;;;1.38;1.35;;;;;;;4.31;68.25;101953.09;5145609;28;20039;-79
2023/03/04 01:28:57;;;;;;;1.63;1.50;;;;;;;4.33;68.61;101950.53;5145236;28;20510;-82
2023/03/04 01:31:27;;;;;;;1.23;1.23;;;;;;;4.37;68.08;101952.34;5142625;28;20150;-80
2023/03/04 01:33:58;;;;;;;0.50;0.50;;;;;;;4.41;67.70;101943.75;5162936;28;20084;-81
2023/03/04 01:36:28;;;;;;;1.20;1.20;;;;;;;4.40;67.93;101937.69;5142288;28;20038;-80
2023/03/04 01:38:59;;;;;;;0.40;0.40;;;;;;;4.36;68.39;101940.19;5146073;28;20027;-79
2023/03/04 01:41:30;;;;;;;0.65;0.65;;;;;;;4.43;68.08;101933.38;5125146;28;20038;-79
2023/03/04 01:44:01;;;;;;;0.30;0.30;;;;;;;4.28;68.33;101932.25;5148294;28;20026;-81
2023/03/04 01:46:31;;;;;;;0.50;0.50;;;;;;;4.41;67.38;101933.34;5164145;28;20049;-81
2023/03/04 01:49:02;;;;;;;0.93;0.93;;;;;;;4.37;68.66;101926.38;5149225;28;20030;-82
2023/03/04 01:51:33;;;;;;;1.23;1.15;;;;;;;4.43;67.38;101925.56;5143647;28;20114;-80
2023/03/04 01:54:03;;;;;;;4.85;1.30;;;;;;;4.46;67.80;101921.34;5126678;28;20110;-79
2023/03/04 01:56:36;;;;;;;0.88;0.85;;;;;;;4.46;67.96;101926.53;5139459;28;20038;-80
2023/03/04 01:59:18;;;;;;;1.05;0.95;;;;;;;4.36;67.84;101920.28;5133564;28;20034;-81
2023/03/04 02:01:54;;;;;;;0.35;0.35;;;;;;;4.56;67.46;101931.00;5156952;28;20040;-80
2023/03/04 02:04:28;;;;;;;1.85;1.60;;;;;;;4.53;67.09;101927.50;5133197;28;20034;-80
2023/03/04 02:07:01;;;;;;;16.33;1.88;;;;;;;4.43;68.04;101920.38;5144827;28;20092;-80
2023/03/04 02:09:32;;;;;;;0.50;0.50;;;;;;;4.44;67.85;101916.94;5129186;28;20114;-80
2023/03/04 02:12:03;;;;;;;0.80;0.80;;;;;;;4.46;68.08;101917.84;5123004;28;20161;-80
2023/03/04 02:14:33;;;;;;;0.68;0.68;;;;;;;4.49;67.59;101915.31;5145544;28;20110;-80
2023/03/04 02:17:09;;;;;;;0.32;0.32;;;;;;;4.46;67.88;101915.25;5125745;28;20081;-81
2023/03/04 02:20:01;;;;;;;0.50;0.50;;;;;;;4.39;68.54;101915.13;5147518;28;20081;-81
2023/03/04 02:22:37;;;;;;;0.55;0.55;;;;;;;4.40;68.31;101911.69;5152134;28;20050;-80
2023/03/04 02:25:16;;;;;;;0.30;0.30;;;;;;;4.29;69.05;101905.41;5129491;28;20027;-80
2023/03/04 02:27:46;;;;;;;1.45;1.20;;;;;;;4.47;67.98;101906.59;5136635;28;20034;-81
2023/03/04 02:30:21;;;;;;;0.47;0.47;;;;;;;4.48;68.02;101904.00;5147406;28;20339;-80
2023/03/04 02:32:52;;;;;;;0.90;0.90;;;;;;;4.52;67.61;101899.75;5143540;28;20037;-80
2023/03/04 02:35:23;;;;;;;0.45;0.45;;;;;;;4.36;68.34;101899.47;5129810;28;20050;-81
2023/03/04 02:37:53;;;;;;;0.55;0.55;;;;;;;4.31;68.54;101893.34;5131525;28;20035;-79
2023/03/04 02:40:28;;;;;;;0.40;0.40;;;;;;;4.25;68.67;101901.91;5144107;28;20141;-81
2023/03/04 02:42:59;;;;;;;0.60;0.60;;;;;;;4.29;68.24;101891.56;5151445;28;20122;-80
2023/03/04 02:45:38;;;;;;;0.20;0.20;;;;;;;4.17;69.03;101889.63;5142879;28;20039;-80
2023/03/04 02:48:09;;;;;;;0.77;0.77;;;;;;;4.18;69.18;101888.75;5147103;28;20046;-81
2023/03/04 02:50:43;;;;;;;4.72;1.08;;;;;;;4.24;68.50;101889.75;5143104;28;20165;-80
2023/03/04 02:53:14;;;;;;;1.23;1.08;;;;;;;4.22;69.07;101883.63;5141782;28;20034;-79
2023/03/04 02:55:45;;;;;;;1.67;1.20;;;;;;;4.19;68.87;101882.72;5152847;28;20030;-79
2023/03/04 02:58:15;;;;;;;0.63;0.63;;;;;;;4.35;68.57;101886.47;5139391;28;20596;-80
2023/03/04 03:00:46;;;;;;;0.43;0.43;;;;;;;4.12;69.41;101878.25;5140114;28;20121;-79
2023/03/04 03:03:16;;;;;;;0.30;0.30;;;;;;;4.20;68.64;101882.75;5145830;28;20054;-79
2023/03/04 03:05:47;;;;;;;0.30;0.30;;;;;;;4.25;68.94;101882.84;5142676;28;20568;-80
2023/03/04 03:08:17;;;;;;;0.30;0.30;;;;;;;4.32;68.53;101883.81;5144402;28;20046;-80
2023/03/04 03:10:47;;;;;;;0.60;0.60;;;;;;;4.14;69.50;101885.22;5136649;28;20089;-80
2023/03/04 03:13:18;;;;;;;2.30;1.63;;;;;;;4.12;69.39;101881.75;5133106;28;20593;-79
2023/03/04 03:15:48;;;;;;;0.50;0.50;;;;;;;4.14;69.64;101885.22;5120379;28;20201;-81
2023/03/04 03:18:19;;;;;;;0.75;0.75;;;;;;;4.09;69.32;101882.53;5145109;28;20034;-80
2023/03/04 03:20:49;;;;;;;1.17;1.10;;;;;;;4.15;69.56;101880.91;5140070;28;20023;-80
2023/03/04 03:23:20;;;;;;;0.50;0.50;;;;;;;4.10;69.93;101870.44;5143217;28;20834;-81
2023/03/04 03:25:51;;;;;;;1.85;0.60;;;;;;;4.26;69.27;101874.19;5123930;28;20026;-80
2023/03/04 03:28:21;;;;;;;0.22;0.22;;;;;;;4.27;69.14;101881.13;5122564;28;20026;-79
2023/03/04 03:30:51;;;;;;;1.95;0.98;;;;;;;4.19;69.35;101875.81;5101902;28;20038;-81
2023/03/04 03:33:22;;;;;;;0.30;0.30;;;;;;;4.25;68.93;101869.84;5132422;28;20438;-80
2023/03/04 03:35:53;;;;;;;0.25;0.25;;;;;;;4.17;69.85;101871.44;5150170;28;20118;-80
2023/03/04 03:38:23;;;;;;;0.50;0.50;;;;;;;4.05;70.29;101862.56;5150940;28;20481;-79
2023/03/04 03:40:54;;;;;;;4.80;0.82;;;;;;;4.17;69.81;101868.84;5148212;28;20046;-80
2023/03/04 03:43:24;;;;;;;1.08;1.08;;;;;;;4.28;69.22;101869.03;5134715;28;20035;-80
2023/03/04 03:45:55;;;;;;;0.30;0.30;;;;;;;4.33;68.93;101864.78;5131647;28;20030;-80
2023/03/04 03:48:25;;;;;;;0.68;0.68;;;;;;;4.20;69.40;101871.47;5163415;28;20030;-80
2023/03/04 03:50:55;;;;;;;0.68;0.68;;;;;;;4.39;69.12;101868.38;5150952;28;20027;-80
2023/03/04 03:53:26;;;;;;;3.50;1.67;;;;;;;4.33;68.85;101865.66;5150966;28;20023;-81
2023/03/04 03:55:57;;;;;;;0.30;0.30;;;;;;;4.30;69.27;101868.19;5137188;28;20033;-80
2023/03/04 03:58:28;;;;;;;5.10;1.10;;;;;;;4.29;69.22;101860.38;5161659;28;20030;-81
2023/03/04 04:00:58;;;;;;;0.73;0.73;;;;;;;4.22;69.86;101860.25;5140920;28;20046;-79
2023/03/04 04:03:29;;;;;;;0.80;0.80;;;;;;;4.20;70.08;101861.09;5159625;28;20074;-80
2023/03/04 04:06:00;;;;;;;0.73;0.73;;;;;;;4.32;69.32;101861.31;5128647;28;20698;-79
2023/03/04 04:08:32;;;;;;;1.10;1.10;;;;;;;4.32;69.40;101860.41;5162546;28;20038;-80
2023/03/04 04:11:02;;;;;;;0.30;0.30;;;;;;;4.37;68.49;101859.66;5142825;28;20030;-79
2023/03/04 04:13:33;;;;;;;0.63;0.63;;;;;;;4.39;69.27;101860.56;5152631;28;20018;-79
2023/03/04 04:16:04;;;;;;;0.93;0.93;;;;;;;4.30;69.28;101865.59;5124980;28;20070;-79
2023/03/04 04:18:36;;;;;;;0.30;0.30;;;;;;;4.38;68.63;101856.22;5153591;28;20046;-79
2023/03/04 04:21:06;;;;;;;3.35;1.15;;;;;;;4.29;69.03;101866.44;5132375;28;20486;-81
2023/03/04 04:23:39;;;;;;;0.73;0.70;;;;;;;4.36;68.84;101864.84;5129891;28;20062;-80
2023/03/04 04:26:10;;;;;;;0.63;0.63;;;;;;;4.37;69.09;101864.84;5129720;28;20043;-81
2023/03/04 04:28:40;;;;;;;0.65;0.65;;;;;;;4.28;69.53;101864.69;5146464;28;20595;-82
2023/03/04 04:31:11;;;;;;;0.30;0.30;;;;;;;4.44;68.86;101865.84;5138905;28;20042;-80
2023/03/04 04:33:41;;;;;;;0.50;0.50;;;;;;;4.41;68.53;101861.47;5152056;28;20034;-80
2023/03/04 04:36:15;;;;;;;0.50;0.50;;;;;;;4.32;69.11;101858.72;5151037;28;20047;-81
2023/03/04 04:38:45;;;;;;;0.68;0.65;;;;;;;4.54;68.40;101861.66;5152686;28;20030;-80
2023/03/04 04:41:23;;;;;;;0.30;0.30;;;;;;;4.43;68.63;101863.19;5148167;28;20046;-80
2023/03/04 04:43:53;;;;;;;0.93;0.93;;;;;;;4.53;68.20;101865.09;5150989;28;20110;-80
2023/03/04 04:46:25;;;;;;;0.77;0.77;;;;;;;4.37;68.66;101864.84;5134111;28;20113;-81
2023/03/04 04:48:55;;;;;;;0.30;0.30;;;;;;;4.46;68.25;101868.47;5139434;28;20529;-81
2023/03/04 04:51:26;;;;;;;0.50;0.50;;;;;;;4.37;69.20;101864.84;5130886;28;20039;-81
2023/03/04 04:53:58;;;;;;;0.63;0.63;;;;;;;4.33;69.21;101863.06;5149295;28;20053;-82
2023/03/04 04:56:29;;;;;;;0.30;0.30;;;;;;;4.44;68.59;101864.94;5144693;28;20260;-81
2023/03/04 04:59:03;;;;;;;0.80;0.80;;;;;;;4.45;68.90;101861.50;5145967;28;20047;-81
2023/03/04 05:01:34;;;;;;;0.80;0.80;;;;;;;4.48;68.85;101861.56;5158737;28;20370;-83
2023/03/04 05:04:04;;;;;;;1.50;1.33;;;;;;;4.54;68.63;101859.06;5173863;28;20030;-83
2023/03/04 05:06:35;;;;;;;0.65;0.65;;;;;;;4.55;68.28;101864.28;5131312;28;20081;-81
2023/03/04 05:09:06;;;;;;;0.60;0.60;;;;;;;4.51;68.72;101869.41;5133179;28;20023;-80
2023/03/04 05:11:36;;;;;;;1.20;1.10;;;;;;;4.38;68.69;101865.75;5126629;28;20445;-80
2023/03/04 05:14:06;;;;;;;0.30;0.30;;;;;;;4.54;68.91;101867.75;5128848;28;20031;-79
2023/03/04 05:16:37;;;;;;;0.40;0.40;;;;;;;4.39;69.59;101857.06;5138362;28;20038;-82
2023/03/04 05:19:08;;;;;;;0.30;0.30;;;;;;;4.33;69.39;101856.97;5140976;28;20030;-81
2023/03/04 05:21:38;;;;;;;0.30;0.30;;;;;;;4.40;68.87;101853.63;5141430;28;20035;-80
2023/03/04 05:24:09;;;;;;;0.30;0.30;;;;;;;4.35;68.87;101855.28;5142280;28;20114;-79
2023/03/04 05:26:39;;;;;;;0.30;0.30;;;;;;;4.48;68.58;101859.81;5144097;28;20047;-81
2023/03/04 05:29:09;;;;;;;0.95;0.95;;;;;;;4.43;68.80;101858.00;5120825;28;20022;-79
2023/03/04 05:31:40;;;;;;;0.93;0.93;;;;;;;4.35;69.09;101863.94;5143534;28;20066;-79
2023/03/04 05:34:10;;;;;;;0.50;0.50;;;;;;;4.47;69.17;101867.63;5143722;28;20034;-79
2023/03/04 05:36:41;;;;;;;0.63;0.63;;;;;;;4.30;69.93;101868.19;5141298;28;20129;-79
2023/03/04 05:39:11;;;;;;;0.20;0.20;;;;;;;4.39;68.95;101868.38;5150137;28;20030;-79
2023/03/04 05:41:41;;;;;;;0.60;0.60;;;;;;;4.39;69.36;101873.56;5128437;28;20114;-79
2023/03/04 05:44:12;;;;;;;0.30;0.30;;;;;;;4.30;70.02;101869.94;5142854;28;20039;-79
2023/03/04 05:46:42;;;;;;;0.30;0.30;;;;;;;4.30;70.18;101872.53;5157809;28;20041;-80
2023/03/04 05:49:13;;;;;;;0.30;0.30;;;;;;;4.51;68.76;101877.19;5139714;28;20447;-79
2023/03/04 05:51:43;;;;;;;0.50;0.50;;;;;;;4.64;68.05;101875.66;5142083;28;20066;-79
2023/03/04 05:54:14;;;;;;;0.30;0.30;;;;;;;4.53;68.84;101876.41;5148565;28;20393;-80
2023/03/04 05:56:44;;;;;;;0.30;0.30;;;;;;;4.61;68.81;101883.44;5141992;28;20038;-78
2023/03/04 05:59:19;;;;;;;1.08;0.82;;;;;;;4.43;69.72;101878.78;5135604;28;20049;-79
2023/03/04 06:01:49;;;;;;;0.20;0.20;;;;;;;4.55;68.34;101885.06;5136757;28;20502;-79
2023/03/04 06:04:20;;;;;;;0.73;0.73;;;;;;;4.58;69.11;101879.06;5122478;28;20034;-79
2023/03/04 06:06:50;;;;;;;0.50;0.50;;;;;;;4.52;69.05;101881.53;5126449;28;20584;-78
2023/03/04 06:09:21;;;;;;;0.20;0.20;;;;;;;4.53;69.35;101881.59;5142131;28;20027;-78
2023/03/04 06:11:51;;;;;;;0.88;0.88;;;;;;;4.59;68.79;101890.34;5139693;28;20061;-78
2023/03/04 06:14:21;;;;;;;0.40;0.40;;;;;;;4.54;69.49;101887.66;5147017;28;20031;-78
2023/03/04 06:16:52;;;;;;;0.70;0.70;;;;;;;4.49;69.89;101884.97;5145587;28;20042;-79
2023/03/04 06:19:22;;;;;;;1.75;0.77;;;;;;;4.61;68.83;101889.50;5143031;28;20587;-79
2023/03/04 06:21:53;;;;;;;0.55;0.55;;;;;;;4.57;68.59;101893.78;5148980;28;20047;-79
2023/03/04 06:24:29;;;;;;;0.57;0.57;;;;;;;4.37;69.69;101896.03;5148918;28;20715;-79
2023/03/04 06:27:00;;;;;;;0.30;0.30;;;;;;;4.44;69.40;101890.94;5137024;28;20043;-80
2023/03/04 06:29:31;;;;;;;2.40;0.93;;;;;;;4.50;69.13;101893.66;5140872;28;20141;-79
2023/03/04 06:32:01;;;;;;;0.60;0.60;;;;;;;4.48;69.19;101890.16;5137490;28;20046;-80
2023/03/04 06:34:32;;;;;;;4.13;1.67;;;;;;;4.44;70.11;101886.63;5158297;28;20041;-79
2023/03/04 06:37:03;;;;;;;0.30;0.30;;;;;;;4.54;69.50;101903.25;5135211;28;20037;-80
2023/03/04 06:39:36;;;;;;;1.20;1.20;;;;;;;4.59;69.41;101896.38;5142271;28;20045;-80
2023/03/04 06:42:07;;;;;;;;;;;;;;;4.51;69.61;101895.38;5141751;28;20043;-81
2023/03/04 06:44:37;;;;;;;0.30;0.30;;;;;;;4.60;69.13;101903.34;5131152;28;19914;-79
2023/03/04 06:47:08;;;;;;;0.50;0.50;;;;;;;4.60;69.27;101910.28;5135609;28;20764;-79
2023/03/04 06:49:38;;;;;;;0.50;0.50;;;;;;;4.70;69.00;101912.19;5113386;28;20037;-79
2023/03/04 06:52:11;;;;;;;0.20;0.20;;;;;;;4.68;68.90;101912.16;5131770;28;20054;-79
2023/03/04 06:54:42;;;;;;;0.43;0.43;;;;;;;4.64;68.44;101915.56;5138892;28;20527;-80
2023/03/04 06:57:12;;;;;;;0.20;0.20;;;;;;;4.54;69.66;101911.06;5148871;28;20085;-82
2023/03/04 06:59:43;;;;;;;0.65;0.65;;;;;;;4.44;69.76;101916.94;5157299;28;20034;-79
2023/03/04 07:02:13;;;;;;;0.35;0.35;;;;;;;4.60;68.94;101918.94;5149682;28;20030;-79
2023/03/04 07:04:43;;;;;;;0.32;0.32;;;;;;;4.48;69.55;101914.41;5151032;28;20481;-79
2023/03/04 07:07:14;;;;;;;0.20;0.20;;;;;;;4.52;69.49;101910.13;5129435;28;20050;-78
2023/03/04 07:09:44;;;;;;;0.30;0.30;;;;;;;4.77;69.01;101919.25;5122972;28;20034;-80
2023/03/04 07:12:15;;;;;;;0.30;0.30;;;;;;;4.55;69.72;101918.88;5143552;28;20030;-78
2023/03/04 07:14:45;;;;;;;1.52;1.42;;;;;;;4.66;69.05;101912.97;5148194;28;20037;-79
2023/03/04 07:17:15;;;;;;;0.30;0.30;;;;;;;4.56;68.62;101922.34;5148417;28;20944;-78
2023/03/04 07:19:46;;;;;;;0.30;0.30;;;;;;;4.43;69.64;101921.25;5129944;28;20038;-79
2023/03/04 07:22:16;;;;;;;0.60;0.60;;;;;;;4.49;69.38;101925.69;5141609;28;20065;-80
2023/03/04 07:24:47;;;;;;;2.75;1.67;;;;;;;4.64;68.94;101932.88;5150625;28;20104;-82
2023/03/04 07:27:17;;;;;;;0.30;0.30;;;;;;;4.46;70.01;101920.44;5131389;28;20038;-81
2023/03/04 07:29:48;;;;;;;0.30;0.30;;;;;;;4.61;69.13;101941.50;5148660;28;20074;-81
2023/03/04 07:32:18;;;;;;;0.77;0.77;;;;;;;4.53;69.30;101937.88;5142420;28;20038;-81
2023/03/04 07:34:49;;;;;;;0.20;0.20;;;;;;;4.61;69.47;101930.22;5132108;28;20118;-80
2023/03/04 07:37:20;;;;;;;1.55;0.88;;;;;;;4.64;68.93;101931.16;5126774;28;20493;-81
2023/03/04 07:39:50;;;;;;;2.75;1.38;;;;;;;4.60;69.44;101934.53;5138877;28;20031;-81
2023/03/04 07:42:21;;;;;;;0.30;0.30;;;;;;;4.68;69.29;101937.28;5142230;28;20027;-80
2023/03/04 07:44:52;;;;;;;0.20;0.20;;;;;;;4.78;69.30;101941.78;5156391;28;20085;-78
2023/03/04 07:47:22;;;;;;;1.85;1.30;;;;;;;4.75;69.64;101933.94;5129652;28;20465;-78
2023/03/04 07:49:53;;;;;;;0.35;0.35;;;;;;;4.61;69.99;101938.03;5145149;28;20042;-78
2023/03/04 07:52:23;;;;;;;0.47;0.47;;;;;;;4.64;69.85;101930.28;5143385;28;20031;-78
2023/03/04 07:54:54;;;;;;;0.50;0.50;;;;;;;4.65;69.94;101940.72;5147398;28;20026;-80
2023/03/04 07:57:24;;;;;;;1.00;1.00;;;;;;;4.60;70.06;101942.34;5127408;28;20069;-78
2023/03/04 07:59:55;;;;;;;0.40;0.40;;;;;;;4.78;69.90;101943.50;5140003;28;20038;-79
2023/03/04 08:02:25;;;;;;;0.30;0.30;;;;;;;4.73;69.53;101941.72;5123956;28;20034;-78
2023/03/04 08:04:56;;;;;;;1.25;0.98;;;;;;;4.65;70.16;101940.72;5146347;28;20034;-80
2023/03/04 08:07:26;;;;;;;0.57;0.57;;;;;;;4.80;70.07;101947.00;5128311;28;20034;-80
2023/03/04 08:09:56;;;;;;;0.20;0.20;;;;;;;4.73;71.27;101952.13;5145321;28;20031;-80
2023/03/04 08:12:28;;;;;;;1.95;1.35;;;;;;;4.87;70.17;101944.56;5154093;28;20054;-79
2023/03/04 08:14:59;;;;;;;0.22;0.22;;;;;;;4.81;70.25;101947.03;5157849;28;20055;-79
2023/03/04 08:17:29;;;;;;;3.47;1.02;;;;;;;4.93;70.01;101951.56;5140462;28;20070;-79
2023/03/04 08:20:00;;;;;;;1.08;1.08;;;;;;;4.97;69.81;101952.47;5126209;28;20027;-79
2023/03/04 08:22:30;;;;;;;0.20;0.20;;;;;;;4.94;69.86;101947.25;5168681;28;20142;-79
2023/03/04 08:25:00;;;;;;;0.20;0.20;;;;;;;5.12;69.63;101946.66;5131004;28;20125;-79
2023/03/04 08:27:31;;;;;;;0.20;0.20;;;;;;;4.96;70.07;101956.81;5131979;28;20255;-80
2023/03/04 08:30:04;;;;;;;0.30;0.30;;;;;;;4.94;70.19;101948.09;5138335;28;20038;-79
2023/03/04 08:32:34;;;;;;;0.80;0.80;;;;;;;5.03;69.89;101947.41;5145337;28;20058;-78
2023/03/04 08:35:05;;;;;;;0.50;0.50;;;;;;;5.02;69.68;101954.31;5124405;28;20286;-79
2023/03/04 08:37:35;;;;;;;1.20;1.10;;;;;;;4.99;70.10;101954.28;5140005;28;20039;-79
2023/03/04 08:40:06;;;;;;;0.40;0.40;;;;;;;4.99;69.86;101951.69;5150602;28;20125;-79
2023/03/04 08:42:37;;;;;;;0.30;0.30;;;;;;;5.00;70.09;101950.78;5142977;28;20035;-81
2023/03/04 08:45:08;;;;;;;0.30;0.30;;;;;;;5.06;70.44;101952.63;5143721;28;20061;-79
2023/03/04 08:47:39;;;;;;;0.30;0.30;;;;;;;5.03;70.28;101945.66;5125963;28;20034;-78
2023/03/04 08:50:10;;;;;;;0.25;0.25;;;;;;;5.04;71.15;101944.81;5145972;28;20636;-81
2023/03/04 08:52:40;;;;;;;0.20;0.20;;;;;;;5.04;71.67;101947.41;5158640;28;20084;-81
2023/03/04 08:55:11;;;;;;;0.20;0.20;;;;;;;5.20;71.30;101947.63;5145730;28;20026;-80
2023/03/04 08:57:42;;;;;;;0.20;0.20;;;;;;;5.18;71.60;101950.22;5146829;28;20034;-81
2023/03/04 09:00:13;;;;;;;0.22;0.22;;;;;;;5.21;71.85;101952.00;5156192;28;20057;-80
2023/03/04 09:02:43;;;;;;;0.30;0.30;;;;;;;5.32;71.67;101947.84;5131638;28;20106;-80
2023/03/04 09:05:14;;;;;;;0.50;0.50;;;;;;;5.27;72.10;101951.22;5142943;28;20421;-79
2023/03/04 09:07:45;;;;;;;0.38;0.38;;;;;;;5.35;71.75;101952.19;5135173;28;20047;-78
2023/03/04 09:10:15;;;;;;;0.40;0.35;;;;;;;5.32;72.79;101958.25;5143264;28;20034;-78
2023/03/04 09:12:46;;;;;;;0.40;0.40;;;;;;;5.36;72.63;101952.22;5128214;28;20038;-79
2023/03/04 09:15:16;;;;;;;0.30;0.30;;;;;;;5.46;71.88;101954.94;5129882;28;20033;-78
2023/03/04 09:17:47;;;;;;;0.65;0.65;;;;;;;5.58;71.26;101949.03;5129061;28;20068;-80
2023/03/04 09:20:18;;;;;;;0.25;0.25;;;;;;;5.63;71.53;101949.97;5140486;28;20077;-81
2023/03/04 09:22:49;;;;;;;0.40;0.40;;;;;;;5.52;71.76;101949.81;5137672;28;20023;-80
2023/03/04 09:25:19;;;;;;;0.30;0.30;;;;;;;5.38;71.69;101953.97;5145270;28;20067;-80
2023/03/04 09:27:49;;;;;;;0.65;0.65;;;;;;;5.47;71.69;101946.28;5151563;28;20041;-80
2023/03/04 09:30:20;;;;;;;0.38;0.38;;;;;;;5.60;71.39;101948.19;5148636;28;20533;-80
2023/03/04 09:32:50;;;;;;;0.45;0.45;;;;;;;5.50;71.31;101942.00;5144641;28;20043;-81
2023/03/04 09:35:21;;;;;;;0.30;0.30;;;;;;;5.71;70.73;101947.47;5141432;28;20034;-80
2023/03/04 09:37:53;;;;;;;0.30;0.30;;;;;;;5.55;71.01;101947.28;5143326;28;20105;-79
2023/03/04 09:40:28;;;;;;;0.30;0.30;;;;;;;5.63;71.01;101942.16;5156409;28;20030;-79
2023/03/04 09:43:04;;;;;;;0.30;0.30;;;;;;;5.77;71.33;101955.34;5121737;28;20042;-80
2023/03/04 09:45:48;;;;;;;1.30;0.95;;;;;;;5.75;71.17;101944.03;5160290;28;20121;-78
2023/03/04 09:48:26;;;;;;;0.25;0.25;;;;;;;5.79;70.51;101943.22;5148826;28;20047;-79
2023/03/04 09:51:18;;;;;;;0.45;0.45;;;;;;;5.70;70.16;101943.09;5127213;28;20817;-79
2023/03/04 09:54:14;;;;;;;0.50;0.50;;;;;;;5.81;70.77;101939.78;5120098;28;20027;-79
2023/03/04 09:56:44;;;;;;;0.38;0.38;;;;;;;5.88;70.66;101943.34;5144876;28;20026;-78
2023/03/04 09:59:26;;;;;;;1.00;1.00;;;;;;;5.85;70.86;101937.22;5131884;28;20041;-78
2023/03/04 10:02:13;;;;;;;0.30;0.30;;;;;;;5.84;70.67;101936.34;5130148;28;20508;-80
2023/03/04 10:04:49;;;;;;;0.30;0.30;;;;;;;5.91;70.79;101940.75;5130776;28;20415;-78
2023/03/04 10:07:27;;;;;;;0.82;0.82;;;;;;;6.02;69.96;101934.84;5145223;28;20039;-80
2023/03/04 10:10:04;;;;;;;0.20;0.20;;;;;;;6.01;70.08;101933.09;5128381;28;20053;-82
2023/03/04 10:12:39;;;;;;;0.30;0.30;;;;;;;6.07;70.32;101934.03;5149434;28;20041;-81
2023/03/04 10:15:45;;;;;;;0.20;0.20;;;;;;;6.10;70.27;101928.88;5146966;28;20077;-81
2023/03/04 10:18:24;;;;;;;1.55;0.82;;;;;;;6.14;70.89;101932.38;5146028;28;20054;-82
2023/03/04 10:21:14;;;;;;;4.40;0.77;;;;;;;6.01;71.93;101930.47;5151541;28;20042;-83
2023/03/04 10:23:46;;;;;;;0.30;0.30;;;;;;;5.79;71.91;101930.22;5130322;28;20022;-83
2023/03/04 10:26:21;;;;;;;0.30;0.30;;;;;;;6.06;71.58;101919.25;5144744;28;20042;-82
2023/03/04 10:28:52;;;;;;;0.90;0.75;;;;;;;6.13;71.13;101922.81;5123748;28;20026;-80
2023/03/04 10:31:35;;;;;;;0.20;0.20;;;;;;;6.21;70.54;101921.16;5134524;28;20054;-81
2023/03/04 10:34:06;;;;;;;0.35;0.35;;;;;;;6.19;70.11;101916.81;5149962;28;20034;-81
2023/03/04 10:36:50;;;;;;;0.40;0.40;;;;;;;6.27;69.91;101922.97;5147530;28;20109;-79
2023/03/04 10:39:28;;;;;;;0.45;0.45;;;;;;;6.22;70.10;101909.88;5151942;28;20027;-79
2023/03/04 10:42:17;;;;;;;0.80;0.80;;;;;;;6.24;69.80;101907.28;5139339;28;20066;-80
2023/03/04 10:45:19;;;;;;;0.20;0.20;;;;;;;6.46;69.81;101905.75;5143443;28;20030;-80
2023/03/04 10:47:57;;;;;;;0.47;0.47;;;;;;;6.51;69.36;101903.19;5138836;28;20426;-79
2023/03/04 10:50:28;;;;;;;0.20;0.20;;;;;;;6.56;69.92;101894.56;5144153;28;20390;-79
2023/03/04 10:52:58;;;;;;;1.08;1.08;;;;;;;6.53;68.26;101904.94;5134939;28;20041;-79
2023/03/04 10:55:42;;;;;;;0.30;0.30;;;;;;;6.55;68.30;101900.63;5142563;28;20089;-78
2023/03/04 10:58:18;;;;;;;0.30;0.30;;;;;;;6.59;68.08;101898.91;5139512;28;20572;-77
2023/03/04 11:01:00;;;;;;;0.40;0.40;;;;;;;6.66;68.22;101902.44;5140775;28;20529;-77
2023/03/04 11:03:35;;;;;;;0.32;0.32;;;;;;;6.66;68.24;101898.09;5120247;28;20042;-77
2023/03/04 11:06:15;;;;;;;0.20;0.20;;;;;;;6.55;66.95;101903.25;5123483;28;20516;-76
2023/03/04 11:08:57;;;;;;;0.75;0.75;;;;;;;6.57;66.99;101896.28;5143746;28;20042;-77
2023/03/04 11:11:43;;;;;;;0.30;0.30;;;;;;;6.65;67.58;101888.53;5142437;28;20126;-77
2023/03/04 11:14:42;;;;;;;0.20;0.20;;;;;;;6.74;66.97;101890.31;5137415;28;20023;-79
2023/03/04 11:17:17;;;;;;;0.30;0.30;;;;;;;6.84;66.40;101897.38;5155645;28;20042;-81
2023/03/04 11:20:09;;;;;;;4.85;2.35;;;;;;;6.69;66.92;101889.44;5146089;28;20843;-79
2023/03/04 11:22:42;;;;;;;0.73;0.73;;;;;;;6.71;67.61;101895.53;5121338;28;20047;-78
2023/03/04 11:25:37;;;;;;;0.30;0.30;;;;;;;6.58;67.28;101886.72;5139816;28;20107;-77
2023/03/04 11:28:21;;;;;;;0.38;0.38;;;;;;;6.68;67.84;101885.06;5156455;28;20125;-76
2023/03/04 11:31:02;;;;;;;0.30;0.30;;;;;;;6.59;68.13;101891.09;5140753;28;20616;-78
2023/03/04 11:33:51;;;;;;;0.55;0.55;;;;;;;6.71;67.85;101890.31;5139857;28;20042;-78
2023/03/04 11:36:34;;;;;;;0.20;0.20;;;;;;;6.71;68.04;101880.75;5138327;28;20526;-80
2023/03/04 11:39:11;;;;;;;;;;;;;;;6.68;68.10;101872.03;5140284;28;20037;-80
2023/03/04 11:41:51;;;;;;;0.30;0.30;;;;;;;6.80;67.81;101874.75;5125897;28;19980;-79
2023/03/04 11:44:21;;;;;;;0.30;0.30;;;;;;;6.90;67.77;101871.31;5147976;28;20121;-81
2023/03/04 11:47:23;;;;;;;0.20;0.20;;;;;;;6.95;67.81;101862.66;5139870;28;20065;-79
2023/03/04 11:50:29;;;;;;;0.30;0.30;;;;;;;7.05;67.48;101864.47;5143203;28;20053;-80
2023/03/04 11:53:18;;;;;;;0.30;0.30;;;;;;;7.18;66.87;101858.44;5130610;28;20030;-81
2023/03/04 11:56:14;;;;;;;0.30;0.30;;;;;;;7.23;66.72;101851.50;5125050;28;20230;-80
2023/03/04 11:59:04;;;;;;;0.30;0.30;;;;;;;7.24;66.21;101852.38;5147565;28;20124;-81
2023/03/04 12:01:53;;;;;;;0.20;0.20;;;;;;;7.23;65.28;101848.88;5124636;28;20042;-81